WetterOnline ( https://www.wetteronline.de )

Wetter aktuell Geesthacht

Aktuelles Wetter: Boizenburg (46m)

6-stündlich | Neueste Meldungen
Ortszeit Temperatur Wetter
So, 25.02. 1:00 3.8° C bewölkt
Sa, 24.02. 19:00 3.9° C leicht bewölkt
Sa, 24.02. 13:00 8.5° C bewölkt
Sa, 24.02. 7:00 1.1° C leicht bewölkt
Sa, 24.02. 1:00 4.5° C bewölkt
Fr, 23.02. 19:00 7.8° C bedeckt
Fr, 23.02. 13:00 8.4° C bewölkt
Fr, 23.02. 7:00 5.0° C bedeckt
Ortszeit Temperatur Wetter
So, 25.02. 6:30 1.6° C wolkig
So, 25.02. 6:20 1.6° C wolkig
So, 25.02. 6:10 1.7° C bedeckt
So, 25.02. 6:00 1.8° C wolkig
So, 25.02. 5:50 1.8° C wolkig
So, 25.02. 5:40 2.2° C bedeckt
So, 25.02. 5:30 2.9° C bewölkt
So, 25.02. 5:00 2.9° C bewölkt
So, 25.02. 4:30 3.1° C bedeckt
So, 25.02. 4:00 2.8° C bedeckt
So, 25.02. 3:30 2.7° C bewölkt
Ortszeit Relative Feuchte Sichtweite
So, 25.02. 1:00 86% >70 km
Sa, 24.02. 19:00 91% >70 km
Sa, 24.02. 13:00 65% 50 km
Sa, 24.02. 7:00 91% 45 km
Sa, 24.02. 1:00 76% 60 km
Fr, 23.02. 19:00 61% >70 km
Fr, 23.02. 13:00 56% >70 km
Fr, 23.02. 7:00 79% >70 km
Ortszeit Relative Feuchte Sichtweite
So, 25.02. 6:30 88% >70 km
So, 25.02. 6:20 88% -
So, 25.02. 6:10 87% -
So, 25.02. 6:00 87% >70 km
So, 25.02. 5:50 87% -
So, 25.02. 5:40 86% -
So, 25.02. 5:30 83% >70 km
So, 25.02. 5:00 83% >70 km
So, 25.02. 4:30 82% >70 km
So, 25.02. 4:00 84% >70 km
So, 25.02. 3:30 83% >70 km
Ortszeit Niederschlagsmenge Niederschlagsart
So, 25.02. 1:00 0.0 l/m2 in 6 Std. -
Sa, 24.02. 19:00 0.1 l/m2 in 12 Std. Regen
Sa, 24.02. 13:00 0.0 l/m2 in 6 Std. -
Sa, 24.02. 7:00 0.0 l/m2 in 12 Std. -
Sa, 24.02. 1:00 0.0 l/m2 in 6 Std. -
Fr, 23.02. 19:00 0.1 l/m2 in 12 Std. Regen
Fr, 23.02. 13:00 0.1 l/m2 in 6 Std. Regen
Fr, 23.02. 7:00 0.3 l/m2 in 12 Std. Regen
Ortszeit Niederschlagsmenge Niederschlagsart
So, 25.02. 6:30 0.0 l/m2 in 30 Min -
So, 25.02. 6:20 keine Meldung -
So, 25.02. 6:10 keine Meldung -
So, 25.02. 6:00 0.0 l/m2 in 1 Std. -
So, 25.02. 5:50 keine Meldung -
So, 25.02. 5:40 keine Meldung -
So, 25.02. 5:30 0.0 l/m2 in 30 Min -
So, 25.02. 5:00 0.0 l/m2 in 1 Std. -
So, 25.02. 4:30 0.0 l/m2 in 30 Min -
So, 25.02. 4:00 0.0 l/m2 in 1 Std. -
So, 25.02. 3:30 0.0 l/m2 in 30 Min -
Ortszeit Stärke Spitze Richtung
km/h Bft. km/h Grad Sektor
So, 25.02. 1:00 9 2 22 160° S
Sa, 24.02. 19:00 7 2 58 170° S
Sa, 24.02. 13:00 15 3 26 180° S
Sa, 24.02. 7:00 11 2 22 130° SO
Sa, 24.02. 1:00 13 3 28 130° SO
Fr, 23.02. 19:00 14 3 43 160° S
Fr, 23.02. 13:00 20 4 54 220° SW
Fr, 23.02. 7:00 22 4 83 210° SW
Ortszeit Stärke Spitze Richtung
km/h Bft. km/h Grad Sektor
So, 25.02. 6:30 11 2 14 110° O
So, 25.02. 6:20 11 2 - 110° O
So, 25.02. 6:10 11 2 - 110° O
So, 25.02. 6:00 9 2 22 110° O
So, 25.02. 5:50 9 2 - 110° O
So, 25.02. 5:40 11 2 - 130° SO
So, 25.02. 5:30 9 2 19 140° SO
So, 25.02. 5:00 9 2 19 150° SO
So, 25.02. 4:30 11 2 19 150° SO
So, 25.02. 4:00 9 2 20 150° SO
So, 25.02. 3:30 11 2 22 160° S
Ortszeit Untergrenze Bedeckung Gattung
total tief tief mittel hoch
So, 25.02. 1:00 1020 m 7/8 7/8 - - -
Sa, 24.02. 19:00 2100 m 4/8 4/8 - - -
Sa, 24.02. 13:00 1050 m 7/8 7/8 - - -
Sa, 24.02. 7:00 1800 m 4/8 4/8 - - -
Sa, 24.02. 1:00 1800 m 7/8 7/8 - - -
Fr, 23.02. 19:00 1500 m 8/8 8/8 - - -
Fr, 23.02. 13:00 1350 m 7/8 7/8 - - -
Fr, 23.02. 7:00 660 m 8/8 8/8 - - -
Ortszeit Bedeckungsgrad in Achtel und Wolkenuntergrenze
So, 25.02. 6:30 2(1500m) 8(3600m) 8(5700m)
So, 25.02. 6:20 2(1500m) 8(3600m) 8(5700m)
So, 25.02. 6:10 8
So, 25.02. 6:00 1(1500m) 8(5700m) 8(7800m)
So, 25.02. 5:50 1(1500m) 8(5700m) 8(7800m)
So, 25.02. 5:40 8
So, 25.02. 5:30 6(3600m) 7(4200m) 8(7500m)
So, 25.02. 5:00 5(1380m) 8(4200m) 8(6300m)
So, 25.02. 4:30 1(3600m) 8(4800m) 8(6300m)
So, 25.02. 4:00 5(4200m) 8(5100m) 8(6900m)
So, 25.02. 3:30 5(5100m) 6(6000m) 8(7800m)
Ortszeit Luftdruck NN (hPa) Tendenz (hPa in 3 Std.)
So, 25.02. 1:00 1005 + 0,8
Sa, 24.02. 19:00 1003 + 2,5
Sa, 24.02. 13:00 1000 + 0,7
Sa, 24.02. 7:00 998 + 0,9
Sa, 24.02. 1:00 998 + 0,6
Fr, 23.02. 19:00 996 + 1,1
Fr, 23.02. 13:00 994 + 1,8
Fr, 23.02. 7:00 989 + 4,5
Ortszeit Luftdruck NN (hPa) Tendenz (hPa in 3 Std.)
So, 25.02. 6:30 1004 - 0,8
So, 25.02. 6:20 1004 keine Meldung
So, 25.02. 6:10 1004 keine Meldung
So, 25.02. 6:00 1004 - 0,8
So, 25.02. 5:50 1004 keine Meldung
So, 25.02. 5:40 1004 keine Meldung
So, 25.02. 5:30 1004 - 0,8
So, 25.02. 5:00 1005 - 0,4
So, 25.02. 4:30 1005 - 0,3
So, 25.02. 4:00 1005 - 0,4
So, 25.02. 3:30 1005 - 0,2
Ortszeit Schneehöhe (cm)
So, 25.02. 1:00 0
Sa, 24.02. 19:00 0
Sa, 24.02. 13:00 0
Sa, 24.02. 7:00 0
Sa, 24.02. 1:00 0
Fr, 23.02. 19:00 0
Fr, 23.02. 13:00 0
Fr, 23.02. 7:00 0
Ortszeit Schneehöhe (cm)
So, 25.02. 6:30 0
So, 25.02. 6:20 0
So, 25.02. 6:10 -
So, 25.02. 6:00 0
So, 25.02. 5:50 0
So, 25.02. 5:40 -
So, 25.02. 5:30 0
So, 25.02. 5:00 0
So, 25.02. 4:30 0
So, 25.02. 4:00 0
So, 25.02. 3:30 0
Link zu dieser Seite / Seite empfehlen

Das Wetter in ...